Time;durP1;ratioP1;P1;durP2;ratioP2;P2;SDS_P1;SDS_P2;PMS_P1;PMS_P2;Temp;Humidity;BMP_temperature;BMP_pressure;BME280_temperature;BME280_humidity;BME280_pressure;Samples;Min_cycle;Max_cycle;Signal;HPM_P1;HPM_P2
2022/06/20 00:00:17;;;;;;;8.43;2.97;;;14.50;99.90;;;13.44;100.00;100878.06;4965488;28;20133;-76
2022/06/20 00:02:47;;;;;;;14.30;3.25;;;14.40;99.90;;;13.40;100.00;100865.94;4975587;28;20133;-76
2022/06/20 00:05:19;;;;;;;10.90;3.65;;;14.30;99.90;;;13.25;100.00;100838.53;4982487;28;20033;-76
2022/06/20 00:07:48;;;;;;;14.27;3.90;;;14.20;99.90;;;13.15;100.00;100835.53;5000500;28;20482;-76
2022/06/20 00:10:18;;;;;;;10.00;3.25;;;14.20;99.90;;;13.08;100.00;100829.72;5009906;28;20033;-76
2022/06/20 00:12:45;;;;;;;13.85;3.45;;;14.10;99.90;;;13.02;100.00;100831.88;4990494;28;20589;-76
2022/06/20 00:15:23;;;;;;;30.67;3.97;;;14.00;99.90;;;12.92;100.00;100837.66;4995317;28;20034;-76
2022/06/20 00:17:49;;;;;;;18.38;2.92;;;13.90;99.90;;;12.70;100.00;100832.69;4986126;28;20037;-76
2022/06/20 00:20:16;;;;;;;21.67;2.92;;;13.90;99.90;;;12.68;100.00;100833.72;4997543;28;20029;-76
2022/06/20 00:22:43;;;;;;;10.70;2.53;;;13.80;99.90;;;12.62;100.00;100840.19;4991880;28;20402;-76
2022/06/20 00:25:09;;;;;;;8.90;2.40;;;13.70;99.90;;;12.55;100.00;100838.81;4981043;28;20079;-76
2022/06/20 00:27:35;;;;;;;5.45;2.20;;;13.60;99.90;;;12.48;100.00;100843.56;4987700;28;20101;-76
2022/06/20 00:30:01;;;;;;;596.40;18.15;;;13.50;99.90;;;12.39;100.00;100836.09;4981084;28;20021;-76
2022/06/20 00:32:27;;;;;;;70.47;7.28;;;13.40;99.90;;;12.15;100.00;100832.94;4994857;28;20017;-76
2022/06/20 00:34:53;;;;;;;13.63;4.78;;;13.20;99.90;;;12.00;100.00;100834.59;4977532;28;20115;-76
2022/06/20 00:37:20;;;;;;;13.48;5.32;;;13.10;99.90;;;11.86;100.00;100831.78;4991348;28;20030;-76
2022/06/20 00:39:49;;;;;;;8.73;4.00;;;13.10;99.90;;;11.87;100.00;100842.22;5000425;28;20025;-76
2022/06/20 00:42:15;;;;;;;13.27;4.68;;;13.00;99.90;;;11.86;100.00;100827.34;4990432;28;20039;-75
2022/06/20 00:44:46;;;;;;;12.45;4.25;;;13.00;99.90;;;11.84;100.00;100823.09;4987521;28;20091;-76
2022/06/20 00:47:26;;;;;;;16.77;6.30;;;12.90;99.90;;;11.70;100.00;100802.66;4985606;28;20116;-76
2022/06/20 00:50:26;;;;;;;15.13;5.22;;;12.90;99.90;;;11.73;100.00;100826.25;4990155;28;20026;-76
2022/06/20 00:53:00;;;;;;;12.38;4.38;;;12.90;99.90;;;11.75;100.00;100849.91;4989218;28;20038;-76
2022/06/20 00:55:34;;;;;;;927.33;23.38;;;12.90;99.90;;;11.78;100.00;100862.97;4987472;28;20402;-76
2022/06/20 00:58:33;;;;;;;400.05;10.18;;;12.80;99.90;;;11.65;100.00;100866.19;4990650;28;20094;-76
2022/06/20 01:01:00;;;;;;;565.78;14.15;;;12.80;99.90;;;11.64;100.00;100842.50;4980405;28;20546;-76
2022/06/20 01:03:37;;;;;;;221.98;9.13;;;12.70;99.90;;;11.58;100.00;100816.47;4982276;28;20764;-76
2022/06/20 01:06:11;;;;;;;25.90;7.55;;;12.70;99.90;;;11.56;100.00;100808.63;4987149;28;20658;-75
2022/06/20 01:08:44;;;;;;;18.23;5.40;;;12.70;99.90;;;11.63;100.00;100836.41;4995875;28;20079;-76
2022/06/20 01:11:26;;;;;;;18.65;5.45;;;12.80;99.90;;;11.74;100.00;100861.41;5003255;28;20036;-75
2022/06/20 01:13:53;;;;;;;635.05;17.35;;;12.80;99.90;;;11.74;100.00;100856.13;4975802;28;20026;-76
2022/06/20 01:16:34;;;;;;;411.42;11.02;;;12.80;99.90;;;11.72;100.00;100852.69;4960223;28;20096;-76
2022/06/20 01:19:07;;;;;;;333.75;9.23;;;12.80;99.90;;;11.66;100.00;100843.28;4978654;28;20087;-76
2022/06/20 01:21:35;;;;;;;13.77;4.97;;;12.80;99.90;;;11.63;100.00;100838.19;4988633;28;20072;-76
2022/06/20 01:24:28;;;;;;;20.48;5.43;;;12.80;99.90;;;11.61;100.00;100864.63;4987636;28;20044;-76
2022/06/20 01:27:33;;;;;;;36.67;5.57;;;12.70;99.90;;;11.57;100.00;100856.94;4990813;28;20033;-76
2022/06/20 01:30:00;;;;;;;21.83;5.57;;;12.60;99.90;;;11.46;100.00;100842.50;4995006;28;21208;-76
2022/06/20 01:32:26;;;;;;;23.08;7.47;;;12.60;99.90;;;11.41;100.00;100812.03;4975596;28;20022;-76
2022/06/20 01:34:52;;;;;;;24.08;8.00;;;12.50;99.90;;;11.37;100.00;100813.09;4948012;28;20065;-75
2022/06/20 01:37:26;;;;;;;19.15;6.65;;;12.50;99.90;;;11.40;100.00;100826.09;4962853;28;20144;-75
2022/06/20 01:40:05;;;;;;;16.08;6.28;;;12.50;99.90;;;11.37;100.00;100826.28;4977105;28;20036;-77
2022/06/20 01:42:32;;;;;;;20.27;6.88;;;12.40;99.90;;;11.34;100.00;100822.00;4986406;28;20044;-76
2022/06/20 01:45:08;;;;;;;24.17;7.65;;;12.40;99.90;;;11.28;100.00;100833.69;5006078;28;20036;-77
2022/06/20 01:47:52;;;;;;;15.50;6.63;;;12.40;99.90;;;11.19;100.00;100849.94;5024569;28;20430;-76
2022/06/20 01:50:17;;;;;;;21.48;6.38;;;12.30;99.90;;;11.17;100.00;100853.59;4985556;28;20023;-76
2022/06/20 01:52:45;;;;;;;15.55;6.15;;;12.40;99.90;;;11.25;100.00;100865.47;4970757;28;20033;-77
2022/06/20 01:55:18;;;;;;;18.88;6.80;;;12.40;99.90;;;11.25;100.00;100868.13;4977390;28;20123;-77
2022/06/20 01:57:47;;;;;;;17.20;6.93;;;12.40;99.90;;;11.19;100.00;100912.34;4999466;28;20416;-76
2022/06/20 02:00:23;;;;;;;13.77;7.13;;;12.40;99.90;;;11.23;100.00;100920.06;5001284;28;20032;-76
2022/06/20 02:03:01;;;;;;;14.45;6.97;;;12.40;99.90;;;11.28;100.00;100931.22;4973174;28;20034;-77
2022/06/20 02:05:31;;;;;;;16.52;7.75;;;12.50;99.90;;;11.33;100.00;100930.16;4970501;28;20034;-76
2022/06/20 02:08:02;;;;;;;17.30;7.90;;;12.50;99.90;;;11.42;100.00;100929.72;4976254;28;20032;-76
2022/06/20 02:10:48;;;;;;;13.07;7.15;;;12.60;99.90;;;11.57;100.00;100899.97;4940002;28;20045;-77
2022/06/20 02:13:16;;;;;;;20.17;7.20;;;12.70;99.90;;;11.67;100.00;100906.53;4969583;28;20065;-77
2022/06/20 02:15:47;;;;;;;13.90;7.63;;;12.80;99.90;;;11.79;100.00;100913.00;4971102;28;20057;-77
2022/06/20 02:18:15;;;;;;;12.95;6.53;;;12.90;99.90;;;11.87;100.00;100904.72;4980650;28;20025;-76
2022/06/20 02:20:47;;;;;;;19.83;6.88;;;12.90;99.90;;;11.95;100.00;100910.50;4970101;28;20043;-76
2022/06/20 02:23:23;;;;;;;22.83;8.05;;;13.00;99.90;;;11.99;100.00;100892.75;5001505;23;20548;-77
2022/06/20 02:25:52;;;;;;;15.77;8.00;;;13.00;99.90;;;11.96;100.00;100877.88;4969002;28;20080;-76
2022/06/20 02:28:50;;;;;;;22.10;7.55;;;13.00;99.90;;;11.98;100.00;100849.63;4992380;28;25002;-76
2022/06/20 02:31:16;;;;;;;43.70;9.00;;;13.00;99.90;;;11.82;100.00;100831.06;4969284;28;20477;-78
2022/06/20 02:33:42;;;;;;;20.88;8.27;;;13.00;99.90;;;11.89;100.00;100806.09;4988639;28;20029;-76
2022/06/20 02:36:08;;;;;;;25.20;8.68;;;13.00;99.90;;;11.79;100.00;100765.28;4984704;28;20070;-76
2022/06/20 02:38:36;;;;;;;25.05;8.38;;;13.00;99.90;;;11.83;100.00;100750.97;4984637;28;20114;-76
2022/06/20 02:41:02;;;;;;;20.73;8.48;;;13.00;99.90;;;11.90;100.00;100772.69;4985885;28;20033;-76
2022/06/20 02:44:07;;;;;;;13.55;6.82;;;13.00;99.90;;;11.94;100.00;100774.19;4988385;28;20031;-76
2022/06/20 02:46:33;;;;;;;17.88;7.78;;;13.00;99.90;;;11.93;100.00;100775.16;4941457;28;20050;-76
2022/06/20 02:49:03;;;;;;;32.75;9.32;;;12.90;99.90;;;11.85;100.00;100770.22;4987993;28;25771;-76
2022/06/20 02:51:36;;;;;;;18.42;8.60;;;12.90;99.90;;;11.83;100.00;100798.47;4993615;28;20053;-76
2022/06/20 02:54:06;;;;;;;16.80;7.05;;;12.90;99.90;;;11.80;100.00;100814.47;5001594;28;20032;-76
2022/06/20 02:56:39;;;;;;;11.73;6.55;;;12.80;99.90;;;11.78;100.00;100820.75;4977934;28;20017;-76
2022/06/20 02:59:15;;;;;;;21.92;7.88;;;12.90;99.90;;;11.78;100.00;100833.94;4990719;28;20033;-76
2022/06/20 03:02:02;;;;;;;;;;;12.80;99.90;;;11.71;100.00;100825.47;5002545;28;20472;-76
2022/06/20 03:04:32;;;;;;;84.13;7.73;;;12.70;99.90;;;11.66;100.00;100828.34;4996103;28;19928;-76
2022/06/20 03:07:06;;;;;;;236.80;20.50;;;12.70;99.90;;;11.59;100.00;100820.81;4987824;28;20025;-76
2022/06/20 03:09:37;;;;;;;18.05;6.07;;;12.60;99.90;;;11.55;100.00;100817.44;4983103;28;20014;-76
2022/06/20 03:12:05;;;;;;;18.00;7.03;;;12.60;99.90;;;11.59;100.00;100811.09;5003142;28;20964;-76
2022/06/20 03:14:37;;;;;;;18.50;5.85;;;12.60;99.90;;;11.64;100.00;100808.22;4993230;28;20037;-76
2022/06/20 03:17:06;;;;;;;19.77;6.30;;;12.70;99.90;;;11.70;100.00;100819.34;4995317;28;20105;-76
2022/06/20 03:19:38;;;;;;;21.58;6.70;;;12.70;99.90;;;11.78;100.00;100829.50;4986837;28;20072;-76
2022/06/20 03:22:09;;;;;;;13.68;6.70;;;12.80;99.90;;;11.85;100.00;100827.41;4984624;28;20493;-77
2022/06/20 03:24:36;;;;;;;596.47;14.32;;;12.80;99.90;;;11.92;100.00;100842.03;4970110;28;20573;-76
2022/06/20 03:27:05;;;;;;;482.98;11.95;;;12.80;99.90;;;11.91;100.00;100835.06;4962903;28;20504;-77
2022/06/20 03:29:31;;;;;;;105.90;5.63;;;12.80;99.90;;;11.92;100.00;100825.34;4953581;28;20108;-76
2022/06/20 03:31:57;;;;;;;9.95;4.65;;;12.90;99.90;;;11.95;100.00;100818.16;4973512;28;20449;-76
2022/06/20 03:34:22;;;;;;;;;;;12.90;99.90;;;12.06;100.00;100826.34;4982705;28;20571;-76
2022/06/20 03:36:49;;;;;;;9.82;3.30;;;13.10;99.90;;;12.21;100.00;100824.72;4985628;28;19919;-76
2022/06/20 03:39:21;;;;;;;682.40;17.10;;;13.20;99.90;;;12.46;100.00;100824.31;4975813;28;20107;-76
2022/06/20 03:41:49;;;;;;;74.35;4.28;;;14.30;99.90;;;13.59;100.00;100837.50;4998725;28;20026;-76
2022/06/20 03:44:28;;;;;;;88.00;4.70;;;15.60;99.90;;;15.07;100.00;100855.13;4985905;28;20037;-77
2022/06/20 03:47:23;;;;;;;3.70;3.10;;;17.10;99.90;;;16.72;91.63;100848.56;4969198;28;20052;-76
2022/06/20 03:50:25;;;;;;;11.60;4.20;;;17.90;99.90;;;17.72;83.02;100848.47;4994170;28;20033;-77
2022/06/20 03:53:28;;;;;;;12.55;4.15;;;19.30;99.90;;;19.23;76.61;100859.03;5009468;28;20032;-77
2022/06/20 03:56:13;;;;;;;14.98;5.30;;;20.50;99.90;;;19.93;69.43;100856.88;4988372;28;20132;-76
2022/06/20 03:58:55;;;;;;;10.45;5.05;;;21.30;99.90;;;20.47;67.70;100858.50;5008904;28;20057;-76
2022/06/20 04:01:33;;;;;;;15.95;5.80;;;21.80;99.90;;;20.81;66.06;100851.09;4978105;28;20030;-76
2022/06/20 04:04:28;;;;;;;12.95;5.15;;;22.40;99.90;;;21.84;63.37;100857.13;5004294;23;20069;-76
2022/06/20 04:07:07;;;;;;;7.15;3.92;;;23.20;99.90;;;22.94;61.11;100851.22;4990602;28;20041;-76
2022/06/20 04:13:46;;;;;;;7.97;4.07;;;25.00;99.90;;;24.77;52.92;100863.31;4962666;28;20065;-76
2022/06/20 04:16:36;;;;;;;13.88;4.30;;;25.20;99.30;;;24.72;52.58;100886.31;4987486;28;20053;-77
2022/06/20 04:19:28;;;;;;;11.95;4.10;;;24.80;99.20;;;23.77;54.72;100887.94;4930681;28;20103;-77
2022/06/20 04:22:01;;;;;;;15.90;4.00;;;24.40;99.90;;;23.44;56.56;100899.16;4979434;28;20030;-76
2022/06/20 04:24:37;;;;;;;11.02;4.03;;;23.90;99.90;;;23.13;57.22;100896.81;4986382;28;20034;-76
2022/06/20 04:27:25;;;;;;;15.55;3.85;;;23.60;99.90;;;22.96;57.96;100894.88;4984054;28;20037;-76
2022/06/20 04:30:07;;;;;;;11.15;3.83;;;23.50;99.90;;;23.34;56.56;100893.84;4977525;28;20026;-76
2022/06/20 04:32:42;;;;;;;12.43;3.35;;;23.80;99.90;;;24.30;55.36;100895.97;4975170;28;20037;-76
2022/06/20 04:35:27;;;;;;;7.25;2.95;;;24.60;99.90;;;25.55;52.64;100916.16;4983982;28;20145;-76
2022/06/20 04:38:20;;;;;;;12.05;3.38;;;25.60;99.10;;;27.02;49.21;100941.47;4968820;28;20117;-76
2022/06/20 04:40:58;;;;;;;13.98;3.17;;;25.90;98.00;;;26.27;49.75;100915.59;4963055;28;20026;-76
2022/06/20 04:44:13;;;;;;;16.02;2.58;;;26.00;97.70;;;27.00;48.00;100930.00;4959847;23;20045;-76
2022/06/20 04:46:48;;;;;;;6.35;2.15;;;26.50;97.80;;;27.48;47.96;100921.88;5007919;28;20017;-76
2022/06/20 04:49:17;;;;;;;7.07;2.45;;;26.10;98.20;;;25.99;50.50;100921.31;4996729;28;20048;-76
2022/06/20 04:51:46;;;;;;;10.40;2.33;;;25.40;98.20;;;24.95;52.74;100909.00;5003854;28;20045;-77
2022/06/20 04:54:16;;;;;;;8.55;1.85;;;24.60;99.00;;;23.70;55.24;100893.88;5008060;28;20042;-76
2022/06/20 04:56:43;;;;;;;8.82;2.10;;;23.90;99.80;;;22.87;57.25;100893.06;5006385;28;20145;-76
2022/06/20 04:59:19;;;;;;;8.95;2.00;;;23.10;99.90;;;21.86;59.99;100885.47;5004704;28;20029;-77
2022/06/20 05:01:45;;;;;;;7.03;1.80;;;22.20;99.90;;;20.76;63.05;100887.28;5021366;28;20100;-76
2022/06/20 05:04:33;;;;;;;6.43;1.75;;;21.30;99.90;;;19.75;67.75;100870.81;5007487;28;20025;-76
2022/06/20 05:07:06;;;;;;;5.85;2.05;;;20.50;99.90;;;18.90;70.17;100866.09;5005330;28;20039;-76
2022/06/20 05:10:11;;;;;;;5.45;1.70;;;20.00;99.90;;;18.58;72.34;100857.94;4994207;28;25292;-76
2022/06/20 05:12:57;;;;;;;6.70;2.00;;;19.30;99.90;;;18.06;74.14;100857.47;4988387;28;20021;-76
2022/06/20 05:15:40;;;;;;;6.77;1.90;;;18.90;99.90;;;17.66;76.41;100863.09;5009679;28;20578;-76
2022/06/20 05:18:46;;;;;;;7.90;1.65;;;18.50;99.90;;;17.18;76.90;100855.94;4997960;28;20520;-76
2022/06/20 05:21:36;;;;;;;6.38;2.00;;;18.10;99.90;;;16.93;79.26;100856.00;4969247;28;20414;-76
2022/06/20 05:24:19;;;;;;;3.67;1.60;;;17.80;99.90;;;16.56;80.20;100867.38;5003754;28;20569;-76
2022/06/20 05:26:49;;;;;;;6.45;1.90;;;17.50;99.90;;;16.34;81.39;100870.66;5007197;28;20041;-76
2022/06/20 05:29:31;;;;;;;8.32;1.80;;;17.30;99.90;;;16.18;83.07;100864.72;5006565;28;20037;-76
2022/06/20 05:32:04;;;;;;;9.05;2.33;;;17.30;99.90;;;15.99;84.61;100860.63;5001653;28;20096;-77
2022/06/20 05:34:43;;;;;;;11.13;2.33;;;16.90;99.90;;;15.89;86.02;100864.00;5004088;28;20041;-77
2022/06/20 05:37:42;;;;;;;8.70;2.53;;;16.80;99.90;;;15.77;87.18;100871.84;4980848;28;20037;-76
2022/06/20 05:40:43;;;;;;;7.30;2.70;;;16.70;99.90;;;15.63;88.72;100878.97;4999378;28;20514;-76
2022/06/20 05:43:22;;;;;;;6.70;2.65;;;16.60;99.90;;;15.57;88.58;100882.84;4974904;28;20439;-77
2022/06/20 05:45:56;;;;;;;10.43;2.35;;;16.50;99.90;;;15.53;89.17;100889.34;4996813;28;20030;-76
2022/06/20 05:48:30;;;;;;;6.90;2.33;;;16.50;99.90;;;15.51;89.28;100878.81;5004797;28;20025;-76
2022/06/20 05:51:06;;;;;;;8.23;2.60;;;16.50;99.90;;;15.53;89.82;100870.78;4978761;28;20052;-76
2022/06/20 05:53:44;;;;;;;11.43;2.65;;;16.50;99.90;;;15.57;90.59;100870.47;4998365;28;20035;-76
2022/06/20 05:56:47;;;;;;;7.43;2.35;;;16.50;99.90;;;15.63;90.26;100884.28;4964260;28;20037;-76
2022/06/20 05:59:41;;;;;;;7.70;2.90;;;16.50;99.90;;;15.69;90.43;100897.16;4992796;28;20029;-76
2022/06/20 06:02:30;;;;;;;8.23;3.00;;;16.60;99.90;;;15.74;90.68;100909.22;5005644;28;20128;-76
2022/06/20 06:05:07;;;;;;;6.75;2.47;;;16.60;99.90;;;15.73;91.14;100894.22;4985125;28;20030;-76
2022/06/20 06:07:53;;;;;;;7.18;2.30;;;16.60;99.90;;;15.77;91.40;100898.38;5012499;28;20037;-77
2022/06/20 06:10:50;;;;;;;6.43;2.50;;;16.70;99.90;;;15.79;91.28;100891.16;5021453;28;20168;-75
2022/06/20 06:13:36;;;;;;;;;;;16.60;99.90;;;15.76;92.24;100880.72;4996747;28;20033;-75
2022/06/20 06:19:10;;;;;;;7.78;2.70;;;16.60;99.90;;;15.70;91.20;100873.16;4994718;28;20049;-75
2022/06/20 06:21:37;;;;;;;9.50;2.50;;;16.60;99.90;;;15.71;91.35;100876.66;4994404;28;20127;-76
2022/06/20 06:24:06;;;;;;;10.57;3.40;;;16.60;99.90;;;15.73;92.00;100872.13;4995739;28;20397;-74
2022/06/20 06:26:36;;;;;;;17.08;4.10;;;16.60;99.90;;;15.77;92.16;100874.50;4980348;28;20088;-75
2022/06/20 06:29:03;;;;;;;13.85;3.38;;;16.60;99.90;;;15.81;92.82;100876.94;4977770;28;20029;-75
2022/06/20 06:31:37;;;;;;;14.60;3.42;;;16.70;99.90;;;15.86;92.56;100878.34;4973170;28;20386;-75
2022/06/20 06:34:24;;;;;;;17.33;3.58;;;16.70;99.90;;;15.86;92.99;100877.50;4987312;28;20065;-75
2022/06/20 06:37:07;;;;;;;10.00;3.10;;;16.70;99.90;;;15.83;92.66;100864.41;5000240;28;20029;-75
2022/06/20 06:39:42;;;;;;;14.65;3.58;;;16.70;99.90;;;15.82;92.42;100858.25;4986425;28;20508;-75
2022/06/20 06:42:14;;;;;;;17.30;3.45;;;16.70;99.90;;;15.88;92.43;100857.00;5003587;28;20367;-75
2022/06/20 06:44:48;;;;;;;15.50;3.80;;;16.70;99.90;;;15.90;92.33;100842.66;4981086;28;20040;-76
2022/06/20 06:47:38;;;;;;;14.10;3.53;;;16.80;99.90;;;15.96;92.72;100830.75;4987887;28;20030;-75
2022/06/20 06:50:37;;;;;;;16.23;4.30;;;16.80;99.90;;;16.01;93.66;100826.00;5005251;28;20036;-76
2022/06/20 06:53:26;;;;;;;11.15;3.60;;;16.80;99.90;;;15.95;93.48;100815.78;5002412;28;20072;-75
2022/06/20 06:56:00;;;;;;;17.58;3.90;;;16.80;99.90;;;15.88;92.81;100819.81;4979095;28;20489;-75
2022/06/20 06:58:39;;;;;;;16.83;3.60;;;16.80;99.90;;;15.95;92.77;100803.34;4989431;28;20079;-75
2022/06/20 07:01:14;;;;;;;14.27;3.83;;;16.70;99.90;;;15.63;95.42;100800.19;4972245;28;20038;-75
2022/06/20 07:03:47;;;;;;;11.43;3.93;;;16.60;99.90;;;15.62;95.23;100785.22;4977246;28;20531;-75
2022/06/20 07:06:34;;;;;;;12.60;3.25;;;16.60;99.90;;;15.68;96.10;100778.63;4989940;28;20038;-75
2022/06/20 07:09:37;;;;;;;13.40;3.75;;;16.60;99.90;;;15.76;95.16;100773.69;4999976;28;20517;-75
2022/06/20 07:12:38;;;;;;;8.15;3.05;;;16.60;99.90;;;15.68;93.78;100763.59;4977886;28;20041;-75
2022/06/20 07:15:17;;;;;;;11.45;3.38;;;16.60;99.90;;;15.66;94.89;100744.25;5009393;28;20044;-77
2022/06/20 07:18:05;;;;;;;15.20;3.72;;;16.60;99.90;;;15.72;95.45;100748.31;4996194;28;20135;-77
2022/06/20 07:20:39;;;;;;;11.95;2.83;;;16.70;99.90;;;15.82;95.46;100736.13;4983628;28;20514;-77
2022/06/20 07:23:12;;;;;;;7.78;2.78;;;16.60;99.90;;;15.61;92.41;100726.94;4994873;28;20433;-77
2022/06/20 07:25:43;;;;;;;13.32;2.70;;;16.60;99.90;;;15.65;92.42;100721.31;5009659;28;20033;-77
2022/06/20 07:28:49;;;;;;;9.63;2.50;;;16.60;99.90;;;15.54;94.62;100714.06;4996237;28;20033;-76
2022/06/20 07:31:45;;;;;;;15.05;3.05;;;16.50;99.90;;;15.37;95.16;100707.25;4983096;28;20029;-76
2022/06/20 07:34:53;;;;;;;7.72;2.67;;;16.40;99.90;;;15.42;95.47;100708.75;4991797;28;20025;-76
2022/06/20 07:37:29;;;;;;;11.73;2.75;;;16.30;99.90;;;15.37;95.65;100699.28;4977059;28;20230;-76
2022/06/20 07:40:04;;;;;;;7.65;2.33;;;16.30;99.90;;;15.23;96.63;100694.06;5001004;28;20145;-76
2022/06/20 07:42:47;;;;;;;11.20;2.65;;;16.20;99.90;;;15.13;97.26;100685.00;4996165;28;20072;-76
2022/06/20 07:45:46;;;;;;;9.00;2.83;;;16.10;99.90;;;14.96;97.85;100670.22;4990617;28;20025;-76
2022/06/20 07:48:39;;;;;;;7.80;2.15;;;15.90;99.90;;;14.74;99.08;100657.53;4981596;28;20458;-76
2022/06/20 07:51:21;;;;;;;9.45;2.17;;;15.80;99.90;;;14.66;98.41;100657.16;4990302;28;20017;-76
2022/06/20 07:53:57;;;;;;;6.93;1.90;;;15.80;99.90;;;14.77;97.38;100667.91;5005896;28;20021;-76
2022/06/20 07:56:43;;;;;;;7.05;1.63;;;15.80;99.90;;;14.71;97.38;100669.19;4986753;28;20061;-76
2022/06/20 08:00:02;;;;;;;5.20;1.50;;;15.80;99.90;;;14.48;96.59;100680.38;4989535;28;20036;-75
2022/06/20 08:02:33;;;;;;;7.95;2.25;;;15.70;99.90;;;14.58;98.06;100708.03;5015444;28;20271;-76
2022/06/20 08:05:01;;;;;;;6.68;1.67;;;15.70;99.90;;;14.77;98.02;100723.56;4976746;28;20030;-77
2022/06/20 08:07:44;;;;;;;4.88;1.50;;;15.70;99.90;;;14.77;95.97;100734.16;4997177;28;20401;-77
2022/06/20 08:11:00;;;;;;;4.68;1.33;;;15.80;99.90;;;14.87;94.59;100753.00;4994255;28;20030;-77
2022/06/20 08:13:51;;;;;;;4.13;1.40;;;15.90;99.90;;;15.11;94.65;100774.44;4984606;28;20430;-77
2022/06/20 08:16:27;;;;;;;9.93;1.35;;;16.00;99.90;;;15.30;94.08;100782.88;4976428;28;20103;-77
2022/06/20 08:18:53;;;;;;;7.85;1.45;;;16.20;99.90;;;15.50;94.05;100772.75;5007661;28;20026;-76
2022/06/20 08:21:33;;;;;;;5.00;1.50;;;16.30;99.90;;;15.73;93.73;100784.53;4987871;28;20026;-77
2022/06/20 08:24:10;;;;;;;5.63;1.30;;;16.50;99.90;;;15.99;91.72;100774.81;4971592;28;20064;-77
2022/06/20 08:26:54;;;;;;;6.40;1.42;;;16.80;99.90;;;16.32;89.06;100786.69;4995422;28;20013;-77
2022/06/20 08:29:31;;;;;;;4.82;1.30;;;17.10;99.90;;;16.68;87.47;100791.25;4983016;28;20762;-76
2022/06/20 08:32:10;;;;;;;9.68;1.70;;;17.40;99.90;;;16.99;84.24;100791.72;4999868;28;20375;-77
2022/06/20 08:35:21;;;;;;;5.22;1.48;;;17.70;99.90;;;17.30;82.28;100795.66;4984779;28;20041;-76
2022/06/20 08:37:57;;;;;;;7.97;1.50;;;17.90;99.90;;;17.44;81.17;100781.31;4968434;28;20430;-77
2022/06/20 08:41:03;;;;;;;5.38;1.80;;;18.00;99.90;;;17.66;78.93;100785.88;4982355;28;20446;-77
2022/06/20 08:44:07;;;;;;;4.85;1.42;;;18.30;99.90;;;17.77;77.61;100799.22;5000324;28;20041;-77
2022/06/20 08:46:50;;;;;;;3.90;1.48;;;18.40;99.90;;;17.97;77.09;100791.56;4985703;28;20034;-76
2022/06/20 08:49:50;;;;;;;4.90;1.30;;;18.60;99.90;;;18.33;77.41;100789.69;4990476;28;20184;-77
2022/06/20 08:52:56;;;;;;;10.82;1.77;;;19.00;99.90;;;18.62;74.14;100804.25;5019482;28;20120;-77
2022/06/20 08:55:58;;;;;;;7.22;1.60;;;19.30;99.90;;;18.99;73.27;100813.84;5024866;28;20057;-76
2022/06/20 08:58:29;;;;;;;3.83;1.17;;;19.50;99.90;;;19.09;72.07;100813.91;4982042;28;20029;-76
2022/06/20 09:01:13;;;;;;;4.55;1.02;;;19.50;99.90;;;19.11;68.28;100801.31;4999553;28;20061;-77
2022/06/20 09:04:21;;;;;;;5.93;1.00;;;19.60;99.90;;;19.14;65.93;100799.25;4988051;28;20033;-77
2022/06/20 09:07:24;;;;;;;4.20;1.17;;;19.70;99.90;;;19.27;66.28;100802.59;4986886;28;20104;-77
2022/06/20 09:10:36;;;;;;;3.95;1.20;;;19.50;99.90;;;18.43;69.61;100801.34;5004092;28;20034;-77
2022/06/20 09:13:28;;;;;;;5.93;1.15;;;19.30;99.90;;;18.53;71.54;100799.66;4997026;28;20024;-76
2022/06/20 09:16:47;;;;;;;6.10;1.55;;;19.50;99.90;;;18.82;65.82;100799.19;4992215;28;20509;-77
2022/06/20 09:20:00;;;;;;;4.22;1.38;;;19.70;99.90;;;19.28;66.35;100792.75;4946230;28;20046;-76
2022/06/20 09:23:24;;;;;;;5.75;0.98;;;20.00;99.90;;;19.53;62.95;100798.75;4997013;28;20151;-76
2022/06/20 09:26:22;;;;;;;8.65;1.13;;;20.30;99.90;;;20.06;65.52;100796.94;5032687;28;20453;-76
2022/06/20 09:29:13;;;;;;;4.35;1.15;;;20.60;99.90;;;20.51;60.76;100809.13;5011912;28;22316;-76
2022/06/20 09:31:56;;;;;;;3.92;0.90;;;20.90;99.90;;;20.76;59.59;100813.22;5000850;28;20026;-77
2022/06/20 09:35:01;;;;;;;5.93;1.25;;;21.30;99.90;;;20.97;59.01;100810.47;4967407;28;20029;-78
2022/06/20 09:37:54;;;;;;;3.88;1.10;;;21.40;99.90;;;21.03;59.04;100801.00;4977040;28;20075;-77
2022/06/20 09:40:57;;;;;;;4.32;1.00;;;21.60;99.90;;;21.03;59.31;100801.84;4977396;28;20562;-76
2022/06/20 09:43:58;;;;;;;4.63;1.25;;;21.50;99.90;;;20.72;59.75;100806.44;4985592;28;20552;-77
2022/06/20 09:47:21;;;;;;;6.72;1.10;;;21.40;99.90;;;20.66;61.09;100796.25;5010656;28;20026;-76
2022/06/20 09:50:15;;;;;;;5.03;1.17;;;21.40;99.90;;;20.76;61.56;100788.28;4986892;28;20025;-75
2022/06/20 09:53:18;;;;;;;3.58;1.08;;;21.40;99.90;;;20.75;60.62;100789.25;4983216;28;20040;-75
2022/06/20 09:56:22;;;;;;;4.20;1.20;;;21.20;99.90;;;20.13;59.63;100794.59;5012853;28;20128;-76
2022/06/20 09:59:24;;;;;;;2.72;1.00;;;20.80;99.90;;;19.65;60.70;100784.34;4948383;28;20061;-76
2022/06/20 10:02:25;;;;;;;4.53;1.10;;;20.40;99.90;;;19.06;61.61;100778.50;5003412;28;20167;-75
2022/06/20 10:05:19;;;;;;;4.45;1.10;;;20.20;99.90;;;19.04;61.12;100775.09;4989321;28;20072;-75
2022/06/20 10:07:57;;;;;;;6.00;1.08;;;20.10;99.90;;;19.10;60.15;100779.09;4950437;28;20026;-75
2022/06/20 10:11:00;;;;;;;3.90;0.73;;;20.00;99.90;;;18.98;59.58;100774.75;4961008;28;20026;-76
2022/06/20 10:13:51;;;;;;;6.22;1.00;;;19.90;99.90;;;19.14;60.63;100787.72;4945250;28;20526;-77
2022/06/20 10:16:54;;;;;;;5.55;1.10;;;19.80;99.90;;;19.12;61.85;100785.16;5011596;28;20272;-76
2022/06/20 10:20:12;;;;;;;5.35;1.00;;;19.90;99.90;;;19.04;61.07;100796.44;4968995;28;20037;-75
2022/06/20 10:22:53;;;;;;;4.97;1.48;;;19.70;99.90;;;18.61;61.70;100807.03;4983237;28;20506;-76
2022/06/20 10:25:46;;;;;;;5.40;1.05;;;19.60;99.90;;;18.61;61.93;100805.19;4985518;28;20806;-77
2022/06/20 10:28:16;;;;;;;4.32;0.70;;;19.50;99.90;;;18.59;62.22;100807.13;4973561;28;20081;-77
2022/06/20 10:31:28;;;;;;;3.28;1.00;;;19.30;99.90;;;18.14;62.37;100800.91;4983978;28;20023;-76
2022/06/20 10:34:23;;;;;;;2.78;0.85;;;19.10;99.90;;;17.97;63.60;100803.09;4991499;28;20045;-76
2022/06/20 10:37:05;;;;;;;4.10;1.10;;;18.90;99.90;;;17.79;63.96;100807.09;4972416;28;20053;-77
2022/06/20 10:39:58;;;;;;;2.78;0.85;;;18.80;99.90;;;17.78;65.21;100819.56;4954715;28;20040;-76
2022/06/20 10:42:57;;;;;;;3.95;1.00;;;18.70;99.90;;;17.73;65.80;100807.56;4978961;28;20025;-76
2022/06/20 10:45:46;;;;;;;5.60;0.77;;;18.70;99.90;;;17.91;65.48;100813.38;4979906;28;20049;-77
2022/06/20 10:48:12;;;;;;;5.03;0.90;;;18.80;99.90;;;18.14;65.22;100808.91;4981615;28;20398;-77
2022/06/20 10:51:09;;;;;;;4.28;0.82;;;18.80;99.90;;;18.24;66.34;100805.41;4980642;28;20046;-76
2022/06/20 10:53:47;;;;;;;8.80;1.10;;;19.10;99.90;;;18.70;66.55;100816.94;4989992;28;20059;-77
2022/06/20 10:56:59;;;;;;;4.43;0.80;;;19.40;99.90;;;19.06;64.69;100815.03;4970062;28;20037;-76
2022/06/20 11:00:16;;;;;;;8.48;1.02;;;19.70;99.90;;;19.26;62.53;100826.75;4990066;28;20075;-78
2022/06/20 11:03:19;;;;;;;8.02;1.20;;;19.90;99.90;;;19.41;61.90;100828.16;4983360;28;20584;-77
2022/06/20 11:06:08;;;;;;;8.30;0.85;;;20.10;99.90;;;19.34;60.95;100829.63;4967548;28;20045;-77
2022/06/20 11:08:56;;;;;;;4.75;1.30;;;20.10;99.90;;;19.14;60.39;100812.59;4986320;28;20146;-77
2022/06/20 11:12:03;;;;;;;3.25;0.90;;;20.10;99.90;;;19.66;62.03;100813.63;4998065;28;20033;-77
2022/06/20 11:14:46;;;;;;;9.57;1.20;;;20.40;99.90;;;20.10;60.34;100808.19;5000211;28;20034;-77
2022/06/20 11:17:31;;;;;;;3.50;0.88;;;20.60;99.90;;;20.15;59.14;100806.00;5011067;28;20045;-79